• Join FlightAware (Why Join?)
  • Login
  • US Flag 
11:06PM EDT


 

Airport Tracker/Info


-or-


 

Live Flight TrackerFlight Track Log ✈ FSR411 ✈ 04-Apr-2014 ✈ KCMI - 07FA

Flight Track Log - Related Links

Times and Time Zones

All times are in EDT time to prevent confusion due to time zone crossing. See the FSR411 flight status page for this flight to view local times or setup timezone preferences in your user account.

Time Position Orientation Groundspeed Altitude Reporting Facility
EDT Latitude Longitude Course Direction KTS MPH feet Rate Location/Type
08:25AM 40.0136 -88.3272 159° South 221 254 41,000  Level Indianapolis Center
08:26AM 39.9708 -88.3033 157° South 248 285 5,900 -18,300 Descending Chicago Center
08:27AM 39.9017 -88.2642 157° South 265 305 8,700 2,100 Climbing Chicago Center
08:28AM 39.8283 -88.2256 158° South 280 322 10,300 2,340 Climbing Chicago Center
08:29AM 39.7458 -88.1781 156° South 320 368 13,600 4,080 Climbing Chicago Center
08:30AM 39.5141 -87.9335 159° South  Level Estimated
08:30AM 39.6375 -88.1206 158° South 353 406 18,700  Level Chicago Center
08:31AM 39.5472 -88.0725 158° South 354 407 22,000 2,640 Climbing Chicago Center
08:32AM 39.4494 -88.0183 157° South 378 435 24,200 2,700 Climbing Chicago Center
08:33AM 39.3531 -87.9672 158° South 375 432 27,700 2,340 Climbing Chicago Center
08:34AM 39.2569 -87.9169 158° South 370 426 29,000 1,740 Climbing Chicago Center
08:35AM 39.1586 -87.8636 157° South 378 435 31,300 2,460 Climbing Chicago Center
08:36AM 39.0461 -87.8047 158° South 362 417 34,200 1,740 Climbing Chicago Center
08:37AM 38.9544 -87.7567 158° South 355 409 35,000 720 Climbing Chicago Center
08:38AM 38.8606 -87.6892 151° Southeast 385 443 35,700 1,140 Climbing Chicago Center
08:39AM 38.7589 -87.5733 138° Southeast 395 455 37,800 1,560 Climbing Indianapolis Center
08:40AM 38.6833 -87.4286 124° Southeast 415 478 39,400 1,080 Climbing Indianapolis Center
08:41AM 38.6458 -87.2761 107° East 439 505 40,100 720 Climbing Indianapolis Center
08:42AM 38.6106 -87.1175 106° East 450 518 40,900 420 Climbing Indianapolis Center
08:43AM 38.5742 -86.9572 106° East 457 526 41,000  Climbing Indianapolis Center
08:44AM 38.5353 -86.7917 107° East 472 543 41,000  Level Indianapolis Center
08:45AM 38.4958 -86.6217 106° East 486 559 41,000  Level Indianapolis Center
08:47AM 38.4564 -86.4528 107° East 491 565 41,000  Level Indianapolis Center
08:48AM 38.4164 -86.2886 107° East 488 562 41,000  Level Indianapolis Center
08:49AM 38.3783 -86.1306 107° East 471 542 41,000  Level Indianapolis Center
08:50AM 38.3408 -85.9753 107° East 463 533 41,000  Level Indianapolis Center
08:51AM 38.3028 -85.8203 107° East 460 529 41,000  Level Indianapolis Center
08:52AM 38.2567 -85.6314 107° East 460 529 41,000  Level Indianapolis Center
08:53AM 38.2186 -85.4728 107° East 462 532 41,000  Level Indianapolis Center
08:54AM 38.1783 -85.3122 108° East 469 540 41,000  Level Indianapolis Center
08:55AM 38.1364 -85.1458 108° East 479 551 41,000  Level Indianapolis Center
08:56AM 38.0961 -84.9822 107° East 481 554 41,000  Level Indianapolis Center
08:57AM 38.0547 -84.8203 108° East 483 556 41,000  Level Indianapolis Center
08:58AM 38.0158 -84.6606 107° East 480 552 41,000  Level Indianapolis Center
08:59AM 37.9742 -84.4786 106° East 467 537 41,000  Level Indianapolis Center
09:00AM 37.9403 -84.3242 106° East 457 526 41,000  Level Indianapolis Center
09:01AM 37.9081 -84.1708 105° East 455 524 41,000  Level Indianapolis Center
09:02AM 37.8706 -84.0197 107° East 454 522 41,000  Level Indianapolis Center
09:03AM 37.8281 -83.8700 110° East 452 520 41,000  Level Indianapolis Center
09:04AM 37.7842 -83.7192 110° East 453 521 41,000  Level Indianapolis Center
09:05AM 37.7239 -83.5458 114° Southeast 458 527 41,000  Level Indianapolis Center
09:06AM 37.6706 -83.3981 114° Southeast 458 527 41,000  Level Indianapolis Center
09:07AM 37.6075 -83.2594 120° Southeast 458 527 41,000  Level Indianapolis Center
09:08AM 37.5208 -83.1525 136° Southeast 441 507 41,000  Level Indianapolis Center
09:09AM 37.4117 -83.0997 159° South 420 483 41,000  Level Indianapolis Center
09:10AM 37.2981 -83.0917 177° South 411 473 41,000  Level Indianapolis Center
09:11AM 37.1689 -83.0850 178° South 402 463 41,000  Level Indianapolis Center
09:12AM 37.0578 -83.0803 178° South 401 461 41,000  Level Indianapolis Center
09:13AM 36.9481 -83.0758 178° South 401 461 41,000  Level Indianapolis Center
09:14AM 36.8375 -83.0703 178° South 402 463 41,000  Level Indianapolis Center
09:15AM 36.7072 -83.0633 178° South 402 463 41,000 180 Level Indianapolis Center
09:16AM 36.5956 -83.0578 178° South 402 463 41,400 540 Climbing Indianapolis Center
09:17AM 36.4836 -83.0528 178° South 402 463 42,200 720 Climbing Indianapolis Center
09:18AM 36.3722 -83.0472 178° South 402 463 42,900 360 Climbing Indianapolis Center
09:20AM 36.2378 -83.0425 178° South 407 468 43,000  Climbing Atlanta Center
09:21AM 36.1231 -83.0361 177° South 407 468 43,000  Level Atlanta Center
09:22AM 36.0061 -83.0300 178° South 415 478 43,000  Level Atlanta Center
09:23AM 35.8894 -83.0264 179° South 420 483 43,000  Level Atlanta Center
09:24AM 35.7725 -83.0200 177° South 420 483 43,000  Level Atlanta Center
09:25AM 35.6536 -83.0139 178° South 420 483 43,000  Level Atlanta Center
09:26AM 35.5367 -83.0078 178° South 420 483 43,000  Level Atlanta Center
09:27AM 35.4156 -83.0042 179° South 420 483 43,000  Level Atlanta Center
09:28AM 35.2986 -82.9981 178° South 420 483 43,000  Level Atlanta Center
09:29AM 35.1797 -82.9969 180° South 425 489 43,000  Level Atlanta Center
09:30AM 35.0628 -82.9858 176° South 425 489 43,000  Level Atlanta Center
09:31AM 34.9439 -82.9797 178° South 420 483 43,000  Level Atlanta Center
09:32AM 34.8186 -82.9736 178° South 437 503 43,000  Level Atlanta Center
09:33AM 34.6994 -82.9650 177° South 442 509 43,000  Level Atlanta Center
09:34AM 34.5806 -82.9639 180° South 437 503 43,000  Level Atlanta Center
09:35AM 34.4572 -82.9581 178° South 437 503 43,000  Level Atlanta Center
09:36AM 34.3383 -82.9544 179° South 443 510 43,000  Level Atlanta Center
09:37AM 34.2339 -82.9483 177° South 438 504 43,000  Level Atlanta Center
09:38AM 34.1128 -82.9422 178° South 438 504 43,000  Level Atlanta Center
09:39AM 33.9958 -82.9364 178° South 433 498 43,000  Level Atlanta Center
09:40AM 33.8769 -82.9328 179° South 433 498 43,000  Level Atlanta Center
09:41AM 33.7600 -82.9294 179° South 423 487 43,000  Level Atlanta Center
09:42AM 33.6283 -82.9236 178° South 423 487 43,000  Level Atlanta Center
09:43AM 33.5094 -82.9200 179° South 428 493 43,000  Level Atlanta Center
09:44AM 33.3883 -82.9142 178° South 434 499 43,000  Level Atlanta Center
09:45AM 33.2861 -82.9081 177° South 434 499 43,000  Level Atlanta Center
09:46AM 33.1650 -82.9072 180° South 434 499 43,000  Level Atlanta Center
09:47AM 33.0458 -82.8989 177° South 434 499 43,000  Level Atlanta Center
09:48AM 32.9228 -82.8956 179° South 439 505 43,000  Level Atlanta Center
09:49AM 32.8036 -82.8897 178° South 439 505 43,000  Level Atlanta Center
09:50AM 32.5653 -82.8778 178° South 445 512 43,000  Level Jacksonville Center
09:51AM 32.4422 -82.8703 177° South 445 512 43,000  Level Jacksonville Center
09:52AM 32.3189 -82.8656 178° South 440 506 43,000  Level Jacksonville Center
09:53AM 32.1958 -82.8583 177° South 440 506 43,000  Level Jacksonville Center
09:54AM 32.0872 -82.8533 178° South 440 506 43,000  Level Jacksonville Center
09:55AM 31.9619 -82.8486 178° South 440 506 43,000  Level Jacksonville Center
09:56AM 31.8367 -82.8436 178° South 445 512 43,000  Level Jacksonville Center
09:57AM 31.7114 -82.8364 177° South 445 512 43,000  Level Jacksonville Center
09:58AM 31.5839 -82.8292 177° South 445 512 43,000  Level Jacksonville Center
09:59AM 31.4567 -82.8072 172° South 458 527 43,000  Level Jacksonville Center
10:00AM 31.3333 -82.7881 172° South 458 527 43,000  Level Jacksonville Center
10:01AM 31.2103 -82.7664 171° South 462 532 43,000  Level Jacksonville Center
10:02AM 31.0808 -82.7494 174° South 462 532 43,000  Level Jacksonville Center
10:03AM 30.9556 -82.7328 173° South 462 532 43,000  Level Jacksonville Center
10:04AM 30.8300 -82.7111 172° South 462 532 43,000  Level Jacksonville Center
10:05AM 30.7006 -82.6919 173° South 467 537 43,000  Level Jacksonville Center
10:06AM 30.5733 -82.6731 173° South 467 537 43,000  Level Jacksonville Center
10:07AM 30.4522 -82.6492 170° South 456 525 43,000  Level Jacksonville Center
10:08AM 30.3164 -82.6328 174° South 462 532 43,000  Level Jacksonville Center
10:09AM 30.1931 -82.6161 173° South 467 537 43,000  Level Jacksonville Center
10:10AM 30.0658 -82.5950 172° South 467 537 43,000  Level Jacksonville Center
10:11AM 29.9383 -82.5739 172° South 467 537 43,000  Level Jacksonville Center
10:12AM 29.8108 -82.5528 172° South 467 537 43,000  Level Jacksonville Center
10:13AM 29.6836 -82.5339 173° South 467 537 43,000  Level Jacksonville Center
10:14AM 29.5561 -82.5131 172° South 467 537 43,000  Level Jacksonville Center
10:15AM 29.4267 -82.4944 173° South 467 537 43,000  Level Jacksonville Center
10:16AM 29.2972 -82.4758 173° South 467 537 43,000  Level Jacksonville Center
10:17AM 29.1572 -82.4550 173° South 467 537 43,000  Level Jacksonville Center
10:18AM 29.0300 -82.4603 182° South 462 532 43,000  Level Jacksonville Center
10:19AM 28.9089 -82.4917 193° South 450 518 43,000  Level Jacksonville Center
10:20AM 28.7858 -82.5253 193° South 455 524 43,000  Level Jacksonville Center
10:21AM 28.6669 -82.5589 194° South 455 524 43,000  Level Jacksonville Center
10:22AM 28.5439 -82.5900 193° South 449 517 43,000  Level Jacksonville Center
10:23AM 28.4231 -82.6211 193° South 449 517 43,000 -240 Level Jacksonville Center
10:26AM 28.1044 -82.7050 193° South 455 524 42,200 -540 Descending Miami Center
10:27AM 27.9761 -82.7289 189° South 455 524 41,100 -600 Descending Miami Center
10:28AM 27.8481 -82.7036 170° South 472 543 41,000 -60 Descending Miami Center
10:29AM 27.7183 -82.6569 162° South 457 526 41,000  Level Miami Center
10:30AM 27.6075 -82.6139 161° South 457 526 41,000  Level Miami Center
10:31AM 27.4697 -82.5625 162° South 464 534 41,000  Level Miami Center
10:32AM 27.3442 -82.5167 162° South 475 547 41,000  Level Miami Center
10:33AM 27.2228 -82.4711 162° South 475 547 41,000  Level Miami Center
10:34AM 27.0994 -82.4253 162° South 480 552 41,000 -360 Level Miami Center
10:35AM 26.9575 -82.3744 162° South 480 552 40,300 -1,200 Descending Miami Center
10:36AM 26.8339 -82.3289 162° South 475 547 38,700 -1,620 Descending Miami Center
10:37AM 26.7083 -82.2811 161° South 470 541 37,100 -1,800 Descending Miami Center
10:38AM 26.5850 -82.2314 160° South 470 541 35,200 -2,220 Descending Miami Center
10:39AM 26.4881 -82.1389 139° Southeast 457 526 32,700 -2,460 Descending Miami Center
10:40AM 26.3917 -82.0325 135° Southeast 469 540 30,300 -2,520 Descending Miami Center
10:41AM 26.2931 -81.9286 137° Southeast 483 556 27,700 -2,700 Descending Miami Center
10:42AM 26.2106 -81.8394 136° Southeast 478 550 24,900 -2,940 Descending Miami Center
10:43AM 26.1369 -81.7300 127° Southeast 457 526 21,900 -2,880 Descending Miami Center
10:44AM 26.0975 -81.6014 109° East 431 496 19,200 -2,340 Descending Miami Center
10:45AM 26.0575 -81.4819 110° East 418 481 17,300 -2,220 Descending Miami Center
10:46AM 26.0136 -81.3461 110° East 418 481 14,800 -2,280 Descending Miami Center
10:47AM 25.9775 -81.2314 109° East 404 465 12,800 -1,980 Descending Miami Center
10:47AM 25.9636 -81.2011 117° Southeast 385 443 12,200 -1,740 Descending Miami Center
10:48AM 25.9450 -81.1311 106° East 393 452 11,100 -1,620 Descending Miami Center
10:49AM 25.9178 -81.0539 111° Southeast 352 405 10,100 -1,200 Descending Miami Center
10:49AM 25.9122 -81.0306 105° East 372 428 9,900 -240 Descending Miami Center
10:50AM 25.8850 -80.9650 115° Southeast 294 338 9,900 -300 Level Miami Center
10:50AM 25.8792 -80.9439 107° East 333 383 9,600 -1,200 Descending Miami Center
10:51AM 25.8264 -80.8892 137° Southeast 306 352 8,600 -1,320 Descending Miami Center
10:51AM 25.8206 -80.8775 119° Southeast 306 352 8,300 -1,560 Descending Miami Center
10:52AM 25.7739 -80.8275 136° Southeast 293 337 7,200 -1,500 Descending Miami Center
10:52AM 25.7658 -80.8111 119° Southeast 295 339 6,800 -1,500 Descending Miami Center
10:53AM 25.7172 -80.7586 136° Southeast 289 333 5,700 -1,440 Descending Miami Center
10:53AM 25.7133 -80.7469 110° East 288 331 5,400 -1,140 Descending Miami Center
10:54AM 25.6644 -80.6947 136° Southeast 274 315 4,600 -1,140 Descending Miami Center
10:54AM 25.6544 -80.6761 121° Southeast 283 326 4,300 -480 Descending Miami Center
10:55AM 25.6081 -80.6192 132° Southeast 266 306 4,000 -300 Descending Miami Center
10:55AM 25.5958 -80.6097 145° Southeast 255 293 4,000  Level Miami Center
10:56AM 25.5511 -80.5553 132° Southeast 256 295 4,000  Level Miami Center
10:57AM 25.5108 -80.5011 129° Southeast 261 300 4,000  Level Miami Center
10:57AM 25.5006 -80.4939 148° Southeast 260 299 4,000 -1,500 Level Miami Center
10:58AM 25.4517 -80.4350 133° Southeast 251 289 2,200 -1,200 Descending Miami Center
10:59AM 25.4111 -80.3856 132° Southeast 222 255 1,600 -300 Descending Miami Center
11:00AM 25.3747 -80.3408 132° Southeast 173 199 1,600  Level Miami Center
11:01AM 25.3444 -80.2961 127° Southeast 172 198 1,600  Level Miami Center
11:02AM 25.3764 -80.2625 44° Northeast 196 226 1,600  Level Miami Center
11:04AM 25.3254 -80.2748 170° South  Level Estimated
11:11AM 25.3254 -80.2748 170° South  Level Estimated
11:12AM 25.3254 -80.2748 170° South  Level Estimated
11:13AM 25.3254 -80.2748 170° South  Level Estimated
11:14AM 25.3254 -80.2748 170° South  Level Estimated
11:15AM 25.3254 -80.2748 170° South  Level Estimated
11:16AM 25.3254 -80.2748 170° South  Level Estimated